createdAt,value
2023-12-09T00:00:38.324Z,-13.05
2023-12-09T00:05:41.601Z,-13.00
2023-12-09T00:10:44.513Z,-13.24
2023-12-09T00:15:47.613Z,-12.82
2023-12-09T00:20:50.566Z,-12.82
2023-12-09T00:25:57.684Z,-12.84
2023-12-09T00:31:02.417Z,-13.45
2023-12-09T00:36:06.453Z,-12.88
2023-12-09T00:41:09.369Z,-12.90
2023-12-09T00:46:12.574Z,-13.02
2023-12-09T00:51:15.783Z,-12.86
2023-12-09T00:56:33.225Z,-13.14
2023-12-09T01:01:38.518Z,-13.08
2023-12-09T01:06:41.620Z,-12.91
2023-12-09T01:11:45.803Z,-13.05
2023-12-09T01:16:49.650Z,-13.53
2023-12-09T01:21:56.799Z,-12.88
2023-12-09T01:27:00.804Z,-14.46
2023-12-09T01:32:04.198Z,-13.17
2023-12-09T01:37:09.720Z,-13.86
2023-12-09T01:42:12.711Z,-14.14
2023-12-09T01:47:16.576Z,-14.64
2023-12-09T01:52:20.178Z,-14.15
2023-12-09T01:57:23.064Z,-12.92
2023-12-09T02:02:26.327Z,-13.40
2023-12-09T02:07:29.422Z,-12.94
2023-12-09T02:12:31.970Z,-12.97
2023-12-09T02:18:01.389Z,-12.95
2023-12-09T02:23:23.997Z,-13.80
2023-12-09T02:28:28.987Z,-13.00
2023-12-09T02:33:32.637Z,-13.49
2023-12-09T02:38:36.448Z,-13.10
2023-12-09T02:43:39.005Z,-13.39
2023-12-09T02:48:41.733Z,-13.22
2023-12-09T02:53:45.845Z,-13.03
2023-12-09T02:58:48.834Z,-13.30
2023-12-09T03:03:51.527Z,-13.05
2023-12-09T03:08:54.172Z,-13.11
2023-12-09T03:13:56.693Z,-13.09
2023-12-09T03:19:01.845Z,-13.15
2023-12-09T03:24:04.539Z,-13.14
2023-12-09T03:29:07.166Z,-13.43
2023-12-09T03:34:09.804Z,-13.06
2023-12-09T03:39:12.879Z,-13.42
2023-12-09T03:44:15.478Z,-13.05
2023-12-09T03:49:18.109Z,-13.23
2023-12-09T03:54:20.824Z,-13.16
2023-12-09T03:59:23.454Z,-13.49
2023-12-09T04:04:26.052Z,-13.09
2023-12-09T04:09:28.882Z,-13.09
2023-12-09T04:14:31.457Z,-13.46
2023-12-09T04:19:34.506Z,-13.18
2023-12-09T04:24:37.245Z,-13.20
2023-12-09T04:29:39.957Z,-13.01
2023-12-09T04:34:42.588Z,-13.11
2023-12-09T04:39:45.281Z,-13.40
2023-12-09T04:44:49.521Z,-14.19
2023-12-09T04:49:53.814Z,-13.87
2023-12-09T04:54:56.543Z,-13.31
2023-12-09T04:59:59.268Z,-14.88
2023-12-09T05:05:01.884Z,-13.25
2023-12-09T05:10:05.985Z,-13.27
2023-12-09T05:20:45.666Z,-14.49
2023-12-09T05:25:51.074Z,-13.30
2023-12-09T05:30:53.666Z,-13.11
2023-12-09T05:35:56.279Z,-13.41
2023-12-09T05:40:59.166Z,-15.42
2023-12-09T05:51:46.797Z,-14.28
2023-12-09T05:56:53.137Z,-13.26
2023-12-09T06:01:56.679Z,-12.96
2023-12-09T06:06:59.289Z,-13.65
2023-12-09T06:12:01.921Z,-13.18
2023-12-09T06:17:04.685Z,-13.12
2023-12-09T06:22:07.332Z,-13.05
2023-12-09T06:27:10.430Z,-12.93
2023-12-09T06:32:14.173Z,-12.94
2023-12-09T06:37:16.841Z,-12.96
2023-12-09T06:42:19.506Z,-13.04
2023-12-09T06:47:22.112Z,-12.94
2023-12-09T06:52:24.926Z,-13.21
2023-12-09T06:57:28.478Z,-12.96
2023-12-09T07:02:41.046Z,-12.95
2023-12-09T07:07:52.524Z,-13.30
2023-12-09T07:12:55.560Z,-12.94
2023-12-09T07:17:58.182Z,-13.14
2023-12-09T07:23:01.145Z,-12.46
2023-12-09T07:28:03.684Z,-12.31
2023-12-09T07:33:06.518Z,-12.38
2023-12-09T07:38:10.031Z,-12.40
2023-12-09T07:43:12.567Z,-12.03
2023-12-09T07:48:15.335Z,-11.97
2023-12-09T07:53:18.175Z,-12.07
2023-12-09T07:58:20.803Z,-11.66
2023-12-09T08:03:23.416Z,-12.05
2023-12-09T08:08:25.975Z,-11.59
2023-12-09T08:13:28.717Z,-11.72
2023-12-09T08:18:31.785Z,-12.03
2023-12-09T08:23:34.674Z,-11.76
2023-12-09T08:28:37.828Z,-11.66
2023-12-09T08:33:41.613Z,-11.83
2023-12-09T08:38:44.279Z,-11.81
2023-12-09T08:43:47.014Z,-11.86
2023-12-09T08:48:50.101Z,-12.19
2023-12-09T08:53:52.718Z,-11.83
2023-12-09T08:58:55.274Z,-11.80
2023-12-09T09:03:57.992Z,-11.86
2023-12-09T09:09:00.578Z,-11.86
2023-12-09T09:14:03.217Z,-11.93
2023-12-09T09:19:07.347Z,-11.73
2023-12-09T09:24:15.634Z,-12.16
2023-12-09T09:29:18.140Z,-12.18
2023-12-09T09:34:20.813Z,-11.93
2023-12-09T09:39:23.587Z,-11.81
2023-12-09T09:44:28.812Z,-11.62
2023-12-09T09:49:35.355Z,-11.91
2023-12-09T09:54:39.582Z,-11.69
2023-12-09T09:59:42.182Z,-11.98
2023-12-09T10:04:44.879Z,-11.76
2023-12-09T10:09:48.348Z,-11.86
2023-12-09T10:14:51.308Z,-11.94
2023-12-09T10:19:56.983Z,-15.00
2023-12-09T10:24:59.726Z,-13.03
2023-12-09T10:30:02.779Z,-12.67
2023-12-09T10:35:10.936Z,-12.30
2023-12-09T10:40:16.745Z,-11.97
2023-12-09T10:45:19.344Z,-11.93
2023-12-09T10:50:24.167Z,-12.09
2023-12-09T10:55:26.902Z,-12.20
2023-12-09T11:00:31.871Z,-12.50
2023-12-09T11:05:42.322Z,-12.35
2023-12-09T11:10:48.713Z,-12.36
2023-12-09T11:16:10.470Z,-12.92
2023-12-09T11:21:16.486Z,-12.57
2023-12-09T11:26:23.870Z,-12.33
2023-12-09T11:31:42.792Z,-12.43
2023-12-09T11:36:47.532Z,-12.90
2023-12-09T11:41:51.287Z,-12.37
2023-12-09T11:46:56.539Z,-13.14
2023-12-09T11:51:59.526Z,-12.78
2023-12-09T11:57:02.220Z,-12.91
2023-12-09T12:02:05.218Z,-12.63
2023-12-09T12:07:09.333Z,-12.84
2023-12-09T12:12:15.887Z,-15.27
2023-12-09T12:17:19.441Z,-13.87
2023-12-09T12:22:22.341Z,-13.65
2023-12-09T12:27:27.812Z,-13.03
2023-12-09T12:32:47.853Z,-12.87
2023-12-09T12:37:51.145Z,-12.63
2023-12-09T12:42:55.496Z,-12.93
2023-12-09T12:47:58.256Z,-12.77
2023-12-09T12:53:04.266Z,-12.89
2023-12-09T12:58:10.449Z,-12.78
2023-12-09T13:03:15.318Z,-12.92
2023-12-09T13:08:18.915Z,-13.01
2023-12-09T13:13:22.290Z,-12.80
2023-12-09T13:18:25.773Z,-12.93
2023-12-09T13:23:29.121Z,-13.96
2023-12-09T13:28:37.726Z,-13.48
2023-12-09T13:33:40.865Z,-13.20
2023-12-09T13:38:46.670Z,-13.13
2023-12-09T13:43:50.856Z,-13.06
2023-12-09T13:48:58.436Z,-13.44
2023-12-09T13:54:01.577Z,-13.48
2023-12-09T13:59:07.910Z,-14.67
2023-12-09T14:04:12.456Z,-13.61
2023-12-09T14:09:19.447Z,-14.15
2023-12-09T14:14:26.568Z,-13.71
2023-12-09T14:19:30.233Z,-13.39
2023-12-09T14:24:39.861Z,-13.64
2023-12-09T14:29:44.063Z,-13.43
2023-12-09T14:34:50.319Z,-13.41
2023-12-09T14:40:01.658Z,-14.64
2023-12-09T14:45:11.107Z,-13.29
2023-12-09T14:50:15.035Z,-13.66
2023-12-09T14:55:21.987Z,-13.52
2023-12-09T15:00:28.846Z,-13.68
2023-12-09T15:05:35.942Z,-13.54
2023-12-09T15:10:44.754Z,-13.83
2023-12-09T15:15:48.176Z,-15.03
2023-12-09T15:20:53.885Z,-13.80
2023-12-09T15:26:03.530Z,-13.86
2023-12-09T15:31:13.761Z,-14.13
2023-12-09T15:36:20.600Z,-13.56
2023-12-09T15:41:28.356Z,-13.59
2023-12-09T15:46:31.930Z,-14.28
2023-12-09T15:51:39.613Z,-13.70
2023-12-09T15:56:47.253Z,-13.81
2023-12-09T16:01:55.279Z,-13.66
2023-12-09T16:07:06.510Z,-13.69
2023-12-09T16:12:09.403Z,-13.60
2023-12-09T16:17:23.165Z,-13.51
2023-12-09T16:22:26.251Z,-13.63
2023-12-09T16:27:49.412Z,-14.54
2023-12-09T16:32:52.406Z,-13.79
2023-12-09T16:37:58.042Z,-13.49
2023-12-09T16:43:08.939Z,-13.70
2023-12-09T16:48:14.362Z,-13.55
2023-12-09T16:53:20.918Z,-13.43
2023-12-09T16:58:37.728Z,-13.44
2023-12-09T17:03:48.075Z,-13.60
2023-12-09T17:08:50.753Z,-13.69
2023-12-09T17:13:56.982Z,-13.80
2023-12-09T17:19:08.201Z,-13.43
2023-12-09T17:24:13.041Z,-13.75
2023-12-09T17:29:21.495Z,-13.65
2023-12-09T17:34:26.693Z,-13.39
2023-12-09T17:39:30.349Z,-13.59
2023-12-09T17:44:35.039Z,-13.49
2023-12-09T17:49:39.294Z,-14.08
2023-12-09T17:54:44.642Z,-13.55
2023-12-09T18:00:01.362Z,-13.79
2023-12-09T18:05:05.327Z,-13.64
2023-12-09T18:10:08.809Z,-15.35
2023-12-09T18:15:14.323Z,-14.76
2023-12-09T18:20:21.140Z,-15.66
2023-12-09T18:25:27.076Z,-14.03
2023-12-09T18:30:31.842Z,-13.85
2023-12-09T18:35:35.899Z,-13.44
2023-12-09T18:40:45.196Z,-13.61
2023-12-09T18:45:52.186Z,-13.69
2023-12-09T18:50:58.089Z,-13.32
2023-12-09T18:56:04.186Z,-13.46
2023-12-09T19:01:16.262Z,-13.41
2023-12-09T19:06:19.488Z,-13.49
2023-12-09T19:11:31.592Z,-13.55
2023-12-09T19:16:38.768Z,-13.54
2023-12-09T19:21:41.948Z,-13.30
2023-12-09T19:26:48.168Z,-13.64
2023-12-09T19:31:53.046Z,-13.32
2023-12-09T19:36:56.281Z,-13.70
2023-12-09T19:41:59.267Z,-13.59
2023-12-09T19:47:09.409Z,-13.62
2023-12-09T19:52:13.640Z,-13.88
2023-12-09T19:57:17.424Z,-14.41
2023-12-09T20:02:21.565Z,-13.59
2023-12-09T20:07:25.303Z,-13.79
2023-12-09T20:12:32.413Z,-13.58
2023-12-09T20:17:38.293Z,-13.37
2023-12-09T20:22:41.071Z,-13.90
2023-12-09T20:27:48.141Z,-13.66
2023-12-09T20:32:52.513Z,-13.36
2023-12-09T20:37:55.765Z,-13.38
2023-12-09T20:42:58.590Z,-13.64
2023-12-09T20:48:04.726Z,-14.66
2023-12-09T20:53:12.780Z,-13.64
2023-12-09T20:58:15.312Z,-13.47
2023-12-09T21:03:18.108Z,-13.35
2023-12-09T21:08:20.726Z,-13.44
2023-12-09T21:13:23.509Z,-13.63
2023-12-09T21:18:29.383Z,-13.42
2023-12-09T21:23:33.453Z,-13.55
2023-12-09T21:28:35.962Z,-14.09
2023-12-09T21:33:40.952Z,-13.95
2023-12-09T21:38:50.268Z,-13.63
2023-12-09T21:43:52.949Z,-13.26
2023-12-09T21:48:55.668Z,-13.24
2023-12-09T21:53:59.121Z,-13.23
2023-12-09T21:59:01.706Z,-13.56
2023-12-09T22:04:04.578Z,-13.68
2023-12-09T22:09:07.683Z,-13.90
2023-12-09T22:14:10.217Z,-13.22
2023-12-09T22:19:13.877Z,-13.47
2023-12-09T22:24:18.924Z,-13.57
2023-12-09T22:29:21.503Z,-13.26
2023-12-09T22:34:24.240Z,-13.41
2023-12-09T22:39:27.283Z,-13.18
2023-12-09T22:44:30.403Z,-13.65
2023-12-09T22:49:33.268Z,-13.49
2023-12-09T22:54:36.120Z,-13.36
2023-12-09T22:59:40.144Z,-13.35
2023-12-09T23:04:42.796Z,-13.71
2023-12-09T23:09:46.177Z,-13.41
2023-12-09T23:14:48.688Z,-13.07
2023-12-09T23:19:51.211Z,-13.20
2023-12-09T23:24:53.758Z,-13.71
2023-12-09T23:29:56.356Z,-13.05
2023-12-09T23:34:58.852Z,-13.22
2023-12-09T23:40:01.512Z,-13.37
2023-12-09T23:45:06.202Z,-13.22
2023-12-09T23:50:09.196Z,-13.13
2023-12-09T23:55:12.040Z,-13.20
